^^
Meteo Knjazevac Station Historical Data
Daily Summary for September 3, 2021 Units:  Metric    English   Both
Daily Weekly Monthly Yearly Custom
  High: Low: Average:
Temperature: 22 °C 17.2 °C 19.4 °C
Dew Point: 18.2 °C 15.4 °C 16.8 °C
Humidity: 90% 79% 85%
Wind Speed: 3.2km/h 0km/h 1.1km/h
Wind Gust: 6.4km/h - -
Wind- - SW
Pressure: 1018.8 hPa 1017.5 hPa -
Precipitation: 0 mm    
Historical Graphs
 
 
Tabular Data for September 3, 2021
Time Temperature Dew Point Pressure Wind Wind Speed Wind Gust Humidity Rainfall Rate (Hourly) solar Conditions
00:00 22 °C 18.2 °C 1017.5 hPa SW 3.2 km/h 4.8 km/h 79% 0 mm 0 W/m2
00:10 21.9 °C 18.1 °C 1017.5 hPa SSW 1.6 km/h 4.8 km/h 79% 0 mm 0 W/m2
00:20 21.7 °C 17.9 °C 1017.5 hPa WSW 1.6 km/h 3.2 km/h 79% 0 mm 0 W/m2
00:30 21.6 °C 17.8 °C 1017.5 hPa Calm   3.2 km/h 79% 0 mm 0 W/m2
00:40 21.4 °C 17.8 °C 1017.5 hPa South 3.2 km/h 4.8 km/h 80% 0 mm 0 W/m2
00:50 21.2 °C 17.6 °C 1017.5 hPa SSE 1.6 km/h 6.4 km/h 80% 0 mm 0 W/m2
01:00 20.9 °C 17.5 °C 1017.5 hPa SE 1.6 km/h 4.8 km/h 81% 0 mm 0 W/m2
01:10 20.8 °C 17.4 °C 1017.5 hPa SSE 1.6 km/h 4.8 km/h 81% 0 mm 0 W/m2
01:20 20.6 °C 17.2 °C 1017.5 hPa Calm   3.2 km/h 81% 0 mm 0 W/m2
01:30 20.5 °C 17.1 °C 1017.5 hPa South 1.6 km/h 6.4 km/h 81% 0 mm 0 W/m2
01:40 20.4 °C 17.1 °C 1017.5 hPa ESE 3.2 km/h 4.8 km/h 81% 0 mm 0 W/m2
01:50 20.2 °C 17.2 °C 1017.5 hPa SSE 1.6 km/h 6.4 km/h 83% 0 mm 0 W/m2
02:00 20.1 °C 17.1 °C 1017.8 hPa Calm   4.8 km/h 83% 0 mm 0 W/m2
02:10 20 °C 17.2 °C 1017.8 hPa WNW 1.6 km/h 3.2 km/h 84% 0 mm 0 W/m2
02:20 19.9 °C 17.1 °C 1017.8 hPa Calm   1.6 km/h 84% 0 mm 0 W/m2
02:30 19.8 °C 17 °C 1017.8 hPa Calm   3.2 km/h 84% 0 mm 0 W/m2
02:40 19.7 °C 16.9 °C 1017.8 hPa Calm   3.2 km/h 84% 0 mm 0 W/m2
02:50 19.5 °C 16.7 °C 1017.8 hPa SE 1.6 km/h 3.2 km/h 84% 0 mm 0 W/m2
03:00 19.4 °C 16.8 °C 1017.8 hPa East 1.6 km/h 4.8 km/h 85% 0 mm 0 W/m2
03:10 19.3 °C 16.7 °C 1017.8 hPa WSW 1.6 km/h 3.2 km/h 85% 0 mm 0 W/m2
03:20 19 °C 16.6 °C 1017.8 hPa West 3.2 km/h 4.8 km/h 86% 0 mm 0 W/m2
03:30 18.9 °C 16.5 °C 1017.8 hPa WNW 1.6 km/h 6.4 km/h 86% 0 mm 0 W/m2
03:40 18.7 °C 16.3 °C 1018.2 hPa WSW 1.6 km/h 4.8 km/h 86% 0 mm 0 W/m2
03:50 18.4 °C 16.4 °C 1018.2 hPa Calm   3.2 km/h 88% 0 mm 0 W/m2
04:00 18.2 °C 16.2 °C 1018.2 hPa Calm   1.6 km/h 88% 0 mm 0 W/m2
04:10 18.2 °C 16.2 °C 1017.8 hPa Calm   3.2 km/h 88% 0 mm 0 W/m2
04:20 18.2 °C 16.2 °C 1017.8 hPa Calm   3.2 km/h 88% 0 mm 0 W/m2
04:30 18.1 °C 16.3 °C 1018.2 hPa Calm   3.2 km/h 89% 0 mm 0 W/m2
04:40 18 °C 16 °C 1018.2 hPa Calm   3.2 km/h 88% 0 mm 0 W/m2
04:50 17.9 °C 16.1 °C 1018.5 hPa Calm   3.2 km/h 89% 0 mm 0 W/m2
05:00 17.9 °C 16.1 °C 1018.5 hPa NW 1.6 km/h 3.2 km/h 89% 0 mm 0 W/m2
05:10 17.8 °C 15.9 °C 1018.5 hPa Calm   3.2 km/h 89% 0 mm 0 W/m2
05:20 17.6 °C 15.8 °C 1018.5 hPa Calm   3.2 km/h 89% 0 mm 0 W/m2
05:30 17.4 °C 15.6 °C 1018.5 hPa West 3.2 km/h 4.8 km/h 89% 0 mm 7 W/m2
05:40 17.2 °C 15.4 °C 1018.8 hPa Calm   3.2 km/h 89% 0 mm 14 W/m2
05:50 17.2 °C 15.6 °C 1018.8 hPa NNW 1.6 km/h 3.2 km/h 90% 0 mm 23 W/m2
Knjazevac, Serbia
Compliments of Weather Underground - 2 mb